sensor_id;sensor_type;location;lat;lon;timestamp;pressure;altitude;pressure_sealevel;temperature;humidity
14343;BME280;7255;53.596;9.960;2022-12-07T00:00:31;100896.88;;;3.33;nan
14343;BME280;7255;53.596;9.960;2022-12-07T00:02:57;100883.91;;;3.38;nan
14343;BME280;7255;53.596;9.960;2022-12-07T00:05:24;100881.41;;;3.37;nan
14343;BME280;7255;53.596;9.960;2022-12-07T00:07:50;100885.19;;;3.42;nan
14343;BME280;7255;53.596;9.960;2022-12-07T00:10:16;100877.06;;;3.44;nan
14343;BME280;7255;53.596;9.960;2022-12-07T00:12:42;100870.94;;;3.43;nan
14343;BME280;7255;53.596;9.960;2022-12-07T00:15:09;100866.44;;;3.44;nan
14343;BME280;7255;53.596;9.960;2022-12-07T00:17:37;100868.59;;;3.49;nan
14343;BME280;7255;53.596;9.960;2022-12-07T00:20:05;100862.44;;;3.48;nan
14343;BME280;7255;53.596;9.960;2022-12-07T00:22:31;100855.81;;;3.44;nan
14343;BME280;7255;53.596;9.960;2022-12-07T00:24:58;100853.31;;;3.42;nan
14343;BME280;7255;53.596;9.960;2022-12-07T00:27:24;100853.00;;;3.45;nan
14343;BME280;7255;53.596;9.960;2022-12-07T00:29:50;100846.38;;;3.41;nan
14343;BME280;7255;53.596;9.960;2022-12-07T00:32:17;100852.66;;;3.49;nan
14343;BME280;7255;53.596;9.960;2022-12-07T00:34:44;100808.94;;;3.51;nan
14343;BME280;7255;53.596;9.960;2022-12-07T00:37:10;100856.91;;;3.58;nan
14343;BME280;7255;53.596;9.960;2022-12-07T00:39:38;100853.72;;;3.62;nan
14343;BME280;7255;53.596;9.960;2022-12-07T00:42:04;100863.03;;;3.58;nan
14343;BME280;7255;53.596;9.960;2022-12-07T00:44:31;100847.91;;;3.59;nan
14343;BME280;7255;53.596;9.960;2022-12-07T00:46:57;100842.59;;;3.59;nan
14343;BME280;7255;53.596;9.960;2022-12-07T00:49:23;100843.19;;;3.46;nan
14343;BME280;7255;53.596;9.960;2022-12-07T00:51:51;100831.25;;;3.42;nan
14343;BME280;7255;53.596;9.960;2022-12-07T00:54:17;100794.88;;;3.42;nan
14343;BME280;7255;53.596;9.960;2022-12-07T00:56:43;100821.94;;;3.46;nan
14343;BME280;7255;53.596;9.960;2022-12-07T00:59:12;100830.19;;;3.51;nan
14343;BME280;7255;53.596;9.960;2022-12-07T01:01:39;100814.25;;;3.51;nan
14343;BME280;7255;53.596;9.960;2022-12-07T01:04:05;100820.63;;;3.42;nan
14343;BME280;7255;53.596;9.960;2022-12-07T01:06:32;100808.84;;;3.44;nan
14343;BME280;7255;53.596;9.960;2022-12-07T01:09:00;100807.66;;;3.47;nan
14343;BME280;7255;53.596;9.960;2022-12-07T01:11:28;100799.84;;;3.45;nan
14343;BME280;7255;53.596;9.960;2022-12-07T01:13:57;100803.88;;;3.41;nan
14343;BME280;7255;53.596;9.960;2022-12-07T01:16:25;100789.94;;;3.39;nan
14343;BME280;7255;53.596;9.960;2022-12-07T01:18:54;100802.44;;;3.31;nan
14343;BME280;7255;53.596;9.960;2022-12-07T01:21:22;100781.53;;;3.27;nan
14343;BME280;7255;53.596;9.960;2022-12-07T01:23:49;100799.13;;;3.28;nan
14343;BME280;7255;53.596;9.960;2022-12-07T01:26:20;100800.44;;;3.33;nan
14343;BME280;7255;53.596;9.960;2022-12-07T01:28:47;100791.34;;;3.27;nan
14343;BME280;7255;53.596;9.960;2022-12-07T01:31:15;100794.53;;;3.22;nan
14343;BME280;7255;53.596;9.960;2022-12-07T01:33:43;100791.09;;;3.14;nan
14343;BME280;7255;53.596;9.960;2022-12-07T01:36:14;100796.03;;;3.17;nan
14343;BME280;7255;53.596;9.960;2022-12-07T01:38:40;100797.56;;;3.11;nan
14343;BME280;7255;53.596;9.960;2022-12-07T01:41:08;100799.22;;;3.12;nan
14343;BME280;7255;53.596;9.960;2022-12-07T01:43:36;100758.28;;;3.06;nan
14343;BME280;7255;53.596;9.960;2022-12-07T01:46:03;100788.12;;;3.08;nan
14343;BME280;7255;53.596;9.960;2022-12-07T01:48:33;100782.47;;;3.12;nan
14343;BME280;7255;53.596;9.960;2022-12-07T01:51:04;100773.00;;;3.09;nan
14343;BME280;7255;53.596;9.960;2022-12-07T01:53:34;100787.78;;;3.12;nan
14343;BME280;7255;53.596;9.960;2022-12-07T01:56:02;100782.00;;;3.08;nan
14343;BME280;7255;53.596;9.960;2022-12-07T01:58:29;100778.56;;;2.99;nan
14343;BME280;7255;53.596;9.960;2022-12-07T02:00:56;100786.19;;;2.94;nan
14343;BME280;7255;53.596;9.960;2022-12-07T02:03:27;100783.22;;;2.89;nan
14343;BME280;7255;53.596;9.960;2022-12-07T02:05:56;100788.91;;;2.86;nan
14343;BME280;7255;53.596;9.960;2022-12-07T02:08:24;100774.62;;;2.87;nan
14343;BME280;7255;53.596;9.960;2022-12-07T02:10:51;100777.09;;;2.88;nan
14343;BME280;7255;53.596;9.960;2022-12-07T02:13:20;100769.66;;;2.84;nan
14343;BME280;7255;53.596;9.960;2022-12-07T02:16:02;100759.72;;;2.78;nan
14343;BME280;7255;53.596;9.960;2022-12-07T02:18:38;100775.50;;;2.71;nan
14343;BME280;7255;53.596;9.960;2022-12-07T02:21:11;100771.88;;;2.72;nan
14343;BME280;7255;53.596;9.960;2022-12-07T02:23:55;100703.59;;;2.66;nan
14343;BME280;7255;53.596;9.960;2022-12-07T02:26:54;100769.75;;;2.67;nan
14343;BME280;7255;53.596;9.960;2022-12-07T02:29:27;100762.78;;;2.66;nan
14343;BME280;7255;53.596;9.960;2022-12-07T02:32:06;100764.28;;;2.61;nan
14343;BME280;7255;53.596;9.960;2022-12-07T02:34:42;100764.78;;;2.64;nan
14343;BME280;7255;53.596;9.960;2022-12-07T02:37:17;100774.06;;;2.60;nan
14343;BME280;7255;53.596;9.960;2022-12-07T02:39:48;100758.16;;;2.60;nan
14343;BME280;7255;53.596;9.960;2022-12-07T02:42:19;100765.09;;;2.61;nan
14343;BME280;7255;53.596;9.960;2022-12-07T02:44:50;100769.25;;;2.64;nan
14343;BME280;7255;53.596;9.960;2022-12-07T02:47:19;100765.09;;;2.61;nan
14343;BME280;7255;53.596;9.960;2022-12-07T02:49:49;100765.59;;;2.65;nan
14343;BME280;7255;53.596;9.960;2022-12-07T02:52:15;100761.31;;;2.56;nan
14343;BME280;7255;53.596;9.960;2022-12-07T02:54:41;100762.50;;;2.53;nan
14343;BME280;7255;53.596;9.960;2022-12-07T02:57:22;100771.91;;;2.56;nan
14343;BME280;7255;53.596;9.960;2022-12-07T03:00:00;100693.03;;;2.49;nan
14343;BME280;7255;53.596;9.960;2022-12-07T03:02:34;100771.63;;;2.42;nan
14343;BME280;7255;53.596;9.960;2022-12-07T03:05:11;100761.03;;;2.42;nan
14343;BME280;7255;53.596;9.960;2022-12-07T03:07:46;100760.22;;;2.42;nan
14343;BME280;7255;53.596;9.960;2022-12-07T03:10:19;100765.19;;;2.28;nan
14343;BME280;7255;53.596;9.960;2022-12-07T03:12:55;100761.56;;;2.29;nan
14343;BME280;7255;53.596;9.960;2022-12-07T03:15:27;100769.19;;;2.24;nan
14343;BME280;7255;53.596;9.960;2022-12-07T03:17:56;100761.72;;;2.20;nan
14343;BME280;7255;53.596;9.960;2022-12-07T03:20:25;100760.25;;;2.25;nan
14343;BME280;7255;53.596;9.960;2022-12-07T03:22:53;100759.75;;;2.22;nan
14343;BME280;7255;53.596;9.960;2022-12-07T03:25:20;100760.59;;;2.22;nan
14343;BME280;7255;53.596;9.960;2022-12-07T03:27:52;100743.69;;;2.15;nan
14343;BME280;7255;53.596;9.960;2022-12-07T03:30:23;100764.91;;;2.15;nan
14343;BME280;7255;53.596;9.960;2022-12-07T03:32:54;100768.22;;;2.17;nan
14343;BME280;7255;53.596;9.960;2022-12-07T03:35:26;100754.28;;;2.15;nan
14343;BME280;7255;53.596;9.960;2022-12-07T03:37:57;100751.00;;;2.13;nan
14343;BME280;7255;53.596;9.960;2022-12-07T03:40:29;100748.19;;;2.15;nan
14343;BME280;7255;53.596;9.960;2022-12-07T03:42:58;100754.63;;;2.12;nan
14343;BME280;7255;53.596;9.960;2022-12-07T03:45:31;100758.63;;;2.08;nan
14343;BME280;7255;53.596;9.960;2022-12-07T03:48:05;100738.59;;;2.05;nan
14343;BME280;7255;53.596;9.960;2022-12-07T03:50:38;100753.62;;;2.05;nan
14343;BME280;7255;53.596;9.960;2022-12-07T03:53:11;100758.13;;;2.04;nan
14343;BME280;7255;53.596;9.960;2022-12-07T03:55:42;100756.94;;;2.07;nan
14343;BME280;7255;53.596;9.960;2022-12-07T03:58:12;100751.00;;;1.97;nan
14343;BME280;7255;53.596;9.960;2022-12-07T04:00:40;100758.81;;;1.98;nan
14343;BME280;7255;53.596;9.960;2022-12-07T04:03:08;100759.13;;;1.95;nan
14343;BME280;7255;53.596;9.960;2022-12-07T04:05:35;100755.81;;;1.93;nan
14343;BME280;7255;53.596;9.960;2022-12-07T04:08:02;100755.81;;;1.93;nan
14343;BME280;7255;53.596;9.960;2022-12-07T04:10:28;100758.13;;;1.88;nan
14343;BME280;7255;53.596;9.960;2022-12-07T04:12:54;100759.31;;;1.85;nan
14343;BME280;7255;53.596;9.960;2022-12-07T04:15:21;100762.44;;;1.81;nan
14343;BME280;7255;53.596;9.960;2022-12-07T04:17:47;100761.31;;;1.83;nan
14343;BME280;7255;53.596;9.960;2022-12-07T04:20:15;100756.31;;;1.80;nan
14343;BME280;7255;53.596;9.960;2022-12-07T04:22:41;100764.94;;;1.82;nan
14343;BME280;7255;53.596;9.960;2022-12-07T04:25:08;100759.97;;;1.79;nan
14343;BME280;7255;53.596;9.960;2022-12-07T04:27:35;100750.53;;;1.77;nan
14343;BME280;7255;53.596;9.960;2022-12-07T04:30:01;100760.31;;;1.76;nan
14343;BME280;7255;53.596;9.960;2022-12-07T04:32:28;100727.53;;;1.69;nan
14343;BME280;7255;53.596;9.960;2022-12-07T04:34:54;100764.25;;;1.72;nan
14343;BME280;7255;53.596;9.960;2022-12-07T04:37:22;100757.31;;;1.71;nan
14343;BME280;7255;53.596;9.960;2022-12-07T04:39:48;100754.84;;;1.69;nan
14343;BME280;7255;53.596;9.960;2022-12-07T04:42:15;100767.91;;;1.71;nan
14343;BME280;7255;53.596;9.960;2022-12-07T04:44:41;100766.59;;;1.67;nan
14343;BME280;7255;53.596;9.960;2022-12-07T04:47:08;100766.91;;;1.64;nan
14343;BME280;7255;53.596;9.960;2022-12-07T04:49:34;100770.06;;;1.59;nan
14343;BME280;7255;53.596;9.960;2022-12-07T04:52:00;100770.22;;;1.66;nan
14343;BME280;7255;53.596;9.960;2022-12-07T04:54:28;100768.25;;;1.68;nan
14343;BME280;7255;53.596;9.960;2022-12-07T04:56:54;100755.81;;;1.60;nan
14343;BME280;7255;53.596;9.960;2022-12-07T04:59:21;100763.63;;;1.62;nan
14343;BME280;7255;53.596;9.960;2022-12-07T05:01:47;100745.06;;;1.53;nan
14343;BME280;7255;53.596;9.960;2022-12-07T05:04:13;100775.50;;;1.49;nan
14343;BME280;7255;53.596;9.960;2022-12-07T05:06:41;100776.84;;;1.53;nan
14343;BME280;7255;53.596;9.960;2022-12-07T05:09:07;100755.34;;;1.57;nan
14343;BME280;7255;53.596;9.960;2022-12-07T05:11:35;100751.69;;;1.58;nan
14343;BME280;7255;53.596;9.960;2022-12-07T05:14:07;100761.94;;;1.61;nan
14343;BME280;7255;53.596;9.960;2022-12-07T05:16:34;100753.84;;;1.62;nan
14343;BME280;7255;53.596;9.960;2022-12-07T05:19:00;100756.00;;;1.67;nan
14343;BME280;7255;53.596;9.960;2022-12-07T05:21:27;100787.78;;;1.67;nan
14343;BME280;7255;53.596;9.960;2022-12-07T05:23:54;100752.34;;;1.68;nan
14343;BME280;7255;53.596;9.960;2022-12-07T05:26:21;100794.72;;;1.68;nan
14343;BME280;7255;53.596;9.960;2022-12-07T05:28:51;100738.75;;;1.63;nan
14343;BME280;7255;53.596;9.960;2022-12-07T05:31:17;100746.91;;;1.61;nan
14343;BME280;7255;53.596;9.960;2022-12-07T05:33:43;100734.97;;;1.57;nan
14343;BME280;7255;53.596;9.960;2022-12-07T05:36:10;100761.28;;;1.50;nan
14343;BME280;7255;53.596;9.960;2022-12-07T05:38:36;100746.72;;;1.54;nan
14343;BME280;7255;53.596;9.960;2022-12-07T05:41:04;100756.16;;;1.57;nan
14343;BME280;7255;53.596;9.960;2022-12-07T05:43:30;100753.84;;;1.62;nan
14343;BME280;7255;53.596;9.960;2022-12-07T05:45:58;100749.37;;;1.63;nan
14343;BME280;7255;53.596;9.960;2022-12-07T05:48:25;100757.66;;;1.68;nan
14343;BME280;7255;53.596;9.960;2022-12-07T05:50:52;100789.94;;;1.71;nan
14343;BME280;7255;53.596;9.960;2022-12-07T05:53:19;100737.63;;;1.65;nan
14343;BME280;7255;53.596;9.960;2022-12-07T05:55:45;100755.81;;;1.60;nan
14343;BME280;7255;53.596;9.960;2022-12-07T05:58:12;100779.31;;;1.55;nan
14343;BME280;7255;53.596;9.960;2022-12-07T06:00:56;100747.53;;;1.55;nan
14343;BME280;7255;53.596;9.960;2022-12-07T06:03:23;100736.94;;;1.55;nan
14343;BME280;7255;53.596;9.960;2022-12-07T06:05:51;100753.00;;;1.45;nan
14343;BME280;7255;53.596;9.960;2022-12-07T06:08:18;100690.28;;;1.46;nan
14343;BME280;7255;53.596;9.960;2022-12-07T06:10:44;100770.22;;;1.49;nan
14343;BME280;7255;53.596;9.960;2022-12-07T06:13:10;100741.25;;;1.48;nan
14343;BME280;7255;53.596;9.960;2022-12-07T06:15:36;100738.75;;;1.46;nan
14343;BME280;7255;53.596;9.960;2022-12-07T06:18:02;100732.97;;;1.43;nan
14343;BME280;7255;53.596;9.960;2022-12-07T06:20:30;100731.81;;;1.45;nan
14343;BME280;7255;53.596;9.960;2022-12-07T06:22:56;100735.94;;;1.48;nan
14343;BME280;7255;53.596;9.960;2022-12-07T06:25:23;100745.41;;;1.50;nan
14343;BME280;7255;53.596;9.960;2022-12-07T06:27:49;100747.38;;;1.48;nan
14343;BME280;7255;53.596;9.960;2022-12-07T06:30:15;100733.97;;;1.50;nan
14343;BME280;7255;53.596;9.960;2022-12-07T06:32:42;100728.66;;;1.50;nan
14343;BME280;7255;53.596;9.960;2022-12-07T06:35:08;100733.66;;;1.53;nan
14343;BME280;7255;53.596;9.960;2022-12-07T06:37:36;100732.31;;;1.49;nan
14343;BME280;7255;53.596;9.960;2022-12-07T06:40:02;100736.44;;;1.51;nan
14343;BME280;7255;53.596;9.960;2022-12-07T06:42:29;100733.66;;;1.53;nan
14343;BME280;7255;53.596;9.960;2022-12-07T06:44:55;100765.91;;;1.57;nan
14343;BME280;7255;53.596;9.960;2022-12-07T06:47:21;100726.53;;;1.62;nan
14343;BME280;7255;53.596;9.960;2022-12-07T06:49:48;100726.19;;;1.65;nan
14343;BME280;7255;53.596;9.960;2022-12-07T06:52:14;100735.81;;;1.74;nan
14343;BME280;7255;53.596;9.960;2022-12-07T06:54:42;100735.47;;;1.77;nan
14343;BME280;7255;53.596;9.960;2022-12-07T06:57:08;100731.47;;;1.81;nan
14343;BME280;7255;53.596;9.960;2022-12-07T06:59:34;100727.84;;;1.82;nan
14343;BME280;7255;53.596;9.960;2022-12-07T07:02:01;100687.59;;;1.87;nan
14343;BME280;7255;53.596;9.960;2022-12-07T07:04:27;100743.06;;;1.88;nan
14343;BME280;7255;53.596;9.960;2022-12-07T07:06:53;100744.41;;;1.92;nan
14343;BME280;7255;53.596;9.960;2022-12-07T07:09:19;100738.75;;;1.96;nan
14343;BME280;7255;53.596;9.960;2022-12-07T07:11:47;100747.34;;;1.98;nan
14343;BME280;7255;53.596;9.960;2022-12-07T07:14:13;100743.72;;;1.99;nan
14343;BME280;7255;53.596;9.960;2022-12-07T07:16:44;100753.50;;;1.98;nan
14343;BME280;7255;53.596;9.960;2022-12-07T07:19:10;100749.50;;;2.02;nan
14343;BME280;7255;53.596;9.960;2022-12-07T07:21:36;100745.37;;;2.00;nan
14343;BME280;7255;53.596;9.960;2022-12-07T07:24:03;100745.72;;;1.97;nan
14343;BME280;7255;53.596;9.960;2022-12-07T07:26:29;100744.03;;;1.96;nan
14343;BME280;7255;53.596;9.960;2022-12-07T07:28:57;100757.12;;;1.97;nan
14343;BME280;7255;53.596;9.960;2022-12-07T07:31:23;100756.44;;;2.03;nan
14343;BME280;7255;53.596;9.960;2022-12-07T07:33:50;100750.69;;;2.00;nan
14343;BME280;7255;53.596;9.960;2022-12-07T07:36:16;100745.72;;;1.97;nan
14343;BME280;7255;53.596;9.960;2022-12-07T07:38:42;100757.31;;;2.04;nan
14343;BME280;7255;53.596;9.960;2022-12-07T07:41:09;100752.31;;;2.01;nan
14343;BME280;7255;53.596;9.960;2022-12-07T07:43:35;100754.00;;;2.02;nan
14343;BME280;7255;53.596;9.960;2022-12-07T07:46:03;100762.75;;;2.10;nan
14343;BME280;7255;53.596;9.960;2022-12-07T07:48:29;100756.28;;;2.13;nan
14343;BME280;7255;53.596;9.960;2022-12-07T07:50:55;100767.38;;;2.17;nan
14343;BME280;7255;53.596;9.960;2022-12-07T07:53:22;100768.22;;;2.17;nan
14343;BME280;7255;53.596;9.960;2022-12-07T07:55:51;100778.47;;;2.20;nan
14343;BME280;7255;53.596;9.960;2022-12-07T07:58:18;100754.78;;;2.19;nan
14343;BME280;7255;53.596;9.960;2022-12-07T08:00:45;100769.37;;;2.15;nan
14343;BME280;7255;53.596;9.960;2022-12-07T08:03:12;100778.12;;;2.23;nan
14343;BME280;7255;53.596;9.960;2022-12-07T08:05:38;100770.50;;;2.28;nan
14343;BME280;7255;53.596;9.960;2022-12-07T08:08:05;100771.81;;;2.33;nan
14343;BME280;7255;53.596;9.960;2022-12-07T08:10:31;100774.66;;;2.31;nan
14343;BME280;7255;53.596;9.960;2022-12-07T08:12:59;100776.28;;;2.32;nan
14343;BME280;7255;53.596;9.960;2022-12-07T08:15:39;100785.41;;;2.38;nan
14343;BME280;7255;53.596;9.960;2022-12-07T08:18:06;100782.75;;;2.46;nan
14343;BME280;7255;53.596;9.960;2022-12-07T08:20:35;100781.06;;;2.45;nan
14343;BME280;7255;53.596;9.960;2022-12-07T08:23:02;100777.06;;;2.49;nan
14343;BME280;7255;53.596;9.960;2022-12-07T08:25:29;100772.94;;;2.46;nan
14343;BME280;7255;53.596;9.960;2022-12-07T08:27:55;100770.28;;;2.55;nan
14343;BME280;7255;53.596;9.960;2022-12-07T08:30:21;100778.91;;;2.57;nan
14343;BME280;7255;53.596;9.960;2022-12-07T08:32:48;100776.03;;;2.58;nan
14343;BME280;7255;53.596;9.960;2022-12-07T08:35:14;100774.75;;;2.54;nan
14343;BME280;7255;53.596;9.960;2022-12-07T08:37:42;100782.69;;;2.62;nan
14343;BME280;7255;53.596;9.960;2022-12-07T08:40:11;100782.69;;;2.62;nan
14343;BME280;7255;53.596;9.960;2022-12-07T08:42:40;100785.19;;;2.64;nan
14343;BME280;7255;53.596;9.960;2022-12-07T08:45:08;100789.44;;;2.73;nan
14343;BME280;7255;53.596;9.960;2022-12-07T08:47:35;100791.78;;;2.68;nan
14343;BME280;7255;53.596;9.960;2022-12-07T08:50:04;100795.72;;;2.80;nan
14343;BME280;7255;53.596;9.960;2022-12-07T08:52:33;100788.41;;;2.82;nan
14343;BME280;7255;53.596;9.960;2022-12-07T08:55:01;100785.44;;;2.77;nan
14343;BME280;7255;53.596;9.960;2022-12-07T08:57:29;100797.16;;;2.91;nan
14343;BME280;7255;53.596;9.960;2022-12-07T08:59:57;100787.16;;;3.01;nan
14343;BME280;7255;53.596;9.960;2022-12-07T09:02:23;100797.44;;;3.04;nan
14343;BME280;7255;53.596;9.960;2022-12-07T09:04:49;100803.25;;;3.08;nan
14343;BME280;7255;53.596;9.960;2022-12-07T09:07:16;100804.88;;;3.09;nan
14343;BME280;7255;53.596;9.960;2022-12-07T09:09:42;100801.81;;;3.20;nan
14343;BME280;7255;53.596;9.960;2022-12-07T09:12:10;100805.34;;;3.13;nan
14343;BME280;7255;53.596;9.960;2022-12-07T09:14:36;100815.78;;;3.22;nan
14343;BME280;7255;53.596;9.960;2022-12-07T09:17:06;100822.38;;;3.26;nan
14343;BME280;7255;53.596;9.960;2022-12-07T09:19:33;100809.06;;;3.35;nan
14343;BME280;7255;53.596;9.960;2022-12-07T09:21:59;100818.62;;;3.44;nan
14343;BME280;7255;53.596;9.960;2022-12-07T09:24:26;100821.72;;;3.56;nan
14343;BME280;7255;53.596;9.960;2022-12-07T09:26:52;100814.25;;;3.51;nan
14343;BME280;7255;53.596;9.960;2022-12-07T09:29:20;100812.34;;;3.37;nan
14343;BME280;7255;53.596;9.960;2022-12-07T09:31:47;100813.69;;;3.41;nan
14343;BME280;7255;53.596;9.960;2022-12-07T09:34:13;100812.25;;;3.53;nan
14343;BME280;7255;53.596;9.960;2022-12-07T09:36:39;100820.53;;;3.58;nan
14343;BME280;7255;53.596;9.960;2022-12-07T09:39:07;100821.00;;;3.62;nan
14343;BME280;7255;53.596;9.960;2022-12-07T09:41:37;100819.00;;;3.64;nan
14343;BME280;7255;53.596;9.960;2022-12-07T09:44:06;100812.38;;;3.60;nan
14343;BME280;7255;53.596;9.960;2022-12-07T09:46:36;100815.34;;;3.65;nan
14343;BME280;7255;53.596;9.960;2022-12-07T09:49:05;100820.06;;;3.78;nan
14343;BME280;7255;53.596;9.960;2022-12-07T09:51:35;100821.59;;;3.72;nan
14343;BME280;7255;53.596;9.960;2022-12-07T09:54:01;100821.38;;;3.82;nan
14343;BME280;7255;53.596;9.960;2022-12-07T09:56:28;100814.84;;;3.84;nan
14343;BME280;7255;53.596;9.960;2022-12-07T09:58:58;100817.94;;;3.73;nan
14343;BME280;7255;53.596;9.960;2022-12-07T10:01:28;100823.50;;;3.87;nan
14343;BME280;7255;53.596;9.960;2022-12-07T10:04:01;100826.81;;;3.89;nan
14343;BME280;7255;53.596;9.960;2022-12-07T10:06:32;100814.16;;;3.91;nan
14343;BME280;7255;53.596;9.960;2022-12-07T10:08:58;100809.06;;;3.81;nan
14343;BME280;7255;53.596;9.960;2022-12-07T10:11:24;100820.53;;;3.81;nan
14343;BME280;7255;53.596;9.960;2022-12-07T10:13:52;100808.25;;;3.80;nan
14343;BME280;7255;53.596;9.960;2022-12-07T10:16:32;100811.19;;;3.85;nan
14343;BME280;7255;53.596;9.960;2022-12-07T10:19:18;100814.62;;;3.94;nan
14343;BME280;7255;53.596;9.960;2022-12-07T10:21:59;100793.09;;;4.04;nan
14343;BME280;7255;53.596;9.960;2022-12-07T10:24:25;100804.09;;;4.01;nan
14343;BME280;7255;53.596;9.960;2022-12-07T10:26:52;100812.72;;;4.03;nan
14343;BME280;7255;53.596;9.960;2022-12-07T10:29:22;100809.31;;;3.94;nan
14343;BME280;7255;53.596;9.960;2022-12-07T10:31:53;100813.09;;;4.00;nan
14343;BME280;7255;53.596;9.960;2022-12-07T10:34:24;100808.31;;;4.10;nan
14343;BME280;7255;53.596;9.960;2022-12-07T10:36:52;100808.59;;;4.00;nan
14343;BME280;7255;53.596;9.960;2022-12-07T10:39:20;100819.81;;;4.11;nan
14343;BME280;7255;53.596;9.960;2022-12-07T10:41:54;100806.81;;;4.16;nan
14343;BME280;7255;53.596;9.960;2022-12-07T10:44:23;100818.25;;;4.16;nan
14343;BME280;7255;53.596;9.960;2022-12-07T10:47:02;100809.06;;;4.04;nan
14343;BME280;7255;53.596;9.960;2022-12-07T10:52:47;100824.88;;;4.20;nan
14343;BME280;7255;53.596;9.960;2022-12-07T10:55:22;100826.25;;;4.31;nan
14343;BME280;7255;53.596;9.960;2022-12-07T10:58:23;100825.53;;;4.37;nan
14343;BME280;7255;53.596;9.960;2022-12-07T11:00:58;100814.53;;;4.40;nan
14343;BME280;7255;53.596;9.960;2022-12-07T11:03:36;100803.44;;;4.37;nan
14343;BME280;7255;53.596;9.960;2022-12-07T11:06:16;100791.97;;;4.36;nan
14343;BME280;7255;53.596;9.960;2022-12-07T11:08:54;100797.19;;;4.30;nan
14343;BME280;7255;53.596;9.960;2022-12-07T11:11:29;100803.44;;;4.37;nan
14343;BME280;7255;53.596;9.960;2022-12-07T11:14:03;100800.25;;;4.41;nan
14343;BME280;7255;53.596;9.960;2022-12-07T11:16:40;100807.81;;;4.30;nan
14343;BME280;7255;53.596;9.960;2022-12-07T11:19:20;100805.09;;;4.38;nan
14343;BME280;7255;53.596;9.960;2022-12-07T11:21:56;100792.94;;;4.20;nan
14343;BME280;7255;53.596;9.960;2022-12-07T11:24:27;100797.44;;;4.20;nan
14343;BME280;7255;53.596;9.960;2022-12-07T11:27:06;100791.28;;;4.19;nan
14343;BME280;7255;53.596;9.960;2022-12-07T11:29:51;100770.38;;;4.16;nan
14343;BME280;7255;53.596;9.960;2022-12-07T11:32:34;100787.47;;;4.37;nan
14343;BME280;7255;53.596;9.960;2022-12-07T11:35:08;100799.84;;;4.44;nan
14343;BME280;7255;53.596;9.960;2022-12-07T11:37:38;100787.19;;;4.47;nan
14343;BME280;7255;53.596;9.960;2022-12-07T11:40:15;100786.47;;;4.53;nan
14343;BME280;7255;53.596;9.960;2022-12-07T11:42:46;100791.78;;;4.53;nan
14343;BME280;7255;53.596;9.960;2022-12-07T11:45:20;100784.53;;;4.61;nan
14343;BME280;7255;53.596;9.960;2022-12-07T11:47:54;100782.25;;;4.43;nan
14343;BME280;7255;53.596;9.960;2022-12-07T11:50:27;100771.16;;;4.40;nan
14343;BME280;7255;53.596;9.960;2022-12-07T11:52:58;100774.06;;;4.45;nan
14343;BME280;7255;53.596;9.960;2022-12-07T11:55:30;100780.94;;;4.39;nan
14343;BME280;7255;53.596;9.960;2022-12-07T11:58:03;100778.50;;;4.38;nan
14343;BME280;7255;53.596;9.960;2022-12-07T12:00:31;100779.78;;;4.42;nan
14343;BME280;7255;53.596;9.960;2022-12-07T12:03:01;100777.00;;;4.50;nan
14343;BME280;7255;53.596;9.960;2022-12-07T12:05:30;100774.97;;;4.52;nan
14343;BME280;7255;53.596;9.960;2022-12-07T12:08:03;100778.50;;;4.38;nan
14343;BME280;7255;53.596;9.960;2022-12-07T12:10:42;100779.37;;;4.45;nan
14343;BME280;7255;53.596;9.960;2022-12-07T12:13:25;100770.69;;;4.36;nan
14343;BME280;7255;53.596;9.960;2022-12-07T12:16:08;100767.84;;;4.38;nan
14343;BME280;7255;53.596;9.960;2022-12-07T12:19:01;100758.66;;;4.26;nan
14343;BME280;7255;53.596;9.960;2022-12-07T12:21:33;100778.38;;;4.31;nan
14343;BME280;7255;53.596;9.960;2022-12-07T12:24:05;100774.81;;;4.39;nan
14343;BME280;7255;53.596;9.960;2022-12-07T12:26:36;100781.03;;;4.46;nan
14343;BME280;7255;53.596;9.960;2022-12-07T12:29:05;100767.84;;;4.38;nan
14343;BME280;7255;53.596;9.960;2022-12-07T12:31:36;100773.00;;;4.54;nan
14343;BME280;7255;53.596;9.960;2022-12-07T12:34:31;100775.91;;;4.59;nan
14343;BME280;7255;53.596;9.960;2022-12-07T12:36:58;100767.84;;;4.68;nan
14343;BME280;7255;53.596;9.960;2022-12-07T12:39:26;100767.38;;;4.64;nan
14343;BME280;7255;53.596;9.960;2022-12-07T12:41:55;100771.03;;;4.63;nan
14343;BME280;7255;53.596;9.960;2022-12-07T12:44:41;100768.19;;;4.65;nan
14343;BME280;7255;53.596;9.960;2022-12-07T12:47:56;100749.47;;;4.73;nan
14343;BME280;7255;53.596;9.960;2022-12-07T12:50:25;100757.91;;;4.61;nan
14343;BME280;7255;53.596;9.960;2022-12-07T12:53:03;100763.63;;;4.58;nan
14343;BME280;7255;53.596;9.960;2022-12-07T12:56:04;100758.03;;;4.38;nan
14343;BME280;7255;53.596;9.960;2022-12-07T12:58:41;100758.47;;;4.42;nan
14343;BME280;7255;53.596;9.960;2022-12-07T13:01:44;100762.87;;;4.35;nan
14343;BME280;7255;53.596;9.960;2022-12-07T13:04:25;100743.62;;;4.33;nan
14343;BME280;7255;53.596;9.960;2022-12-07T13:06:53;100760.41;;;4.33;nan
14343;BME280;7255;53.596;9.960;2022-12-07T13:09:23;100761.22;;;4.34;nan
14343;BME280;7255;53.596;9.960;2022-12-07T13:11:57;100767.09;;;4.44;nan
14343;BME280;7255;53.596;9.960;2022-12-07T13:14:52;100761.78;;;4.44;nan
14343;BME280;7255;53.596;9.960;2022-12-07T13:20:40;100767.09;;;4.44;nan
14343;BME280;7255;53.596;9.960;2022-12-07T13:23:09;100769.59;;;4.46;nan
14343;BME280;7255;53.596;9.960;2022-12-07T13:25:38;100769.94;;;4.42;nan
14343;BME280;7255;53.596;9.960;2022-12-07T13:28:16;100765.72;;;4.33;nan
14343;BME280;7255;53.596;9.960;2022-12-07T13:31:04;100763.25;;;4.32;nan
14343;BME280;7255;53.596;9.960;2022-12-07T13:33:35;100760.59;;;4.47;nan
14343;BME280;7255;53.596;9.960;2022-12-07T13:36:02;100772.06;;;4.47;nan
14343;BME280;7255;53.596;9.960;2022-12-07T13:38:31;100774.44;;;4.42;nan
14343;BME280;7255;53.596;9.960;2022-12-07T13:41:12;100774.81;;;4.39;nan
14343;BME280;7255;53.596;9.960;2022-12-07T13:43:45;100771.69;;;4.50;nan
14343;BME280;7255;53.596;9.960;2022-12-07T13:46:12;100778.22;;;4.48;nan
14343;BME280;7255;53.596;9.960;2022-12-07T13:48:44;100775.09;;;4.29;nan
14343;BME280;7255;53.596;9.960;2022-12-07T13:51:17;100767.09;;;4.14;nan
14343;BME280;7255;53.596;9.960;2022-12-07T13:53:46;100767.62;;;4.24;nan